Time;durP1;ratioP1;P1;durP2;ratioP2;P2;SDS_P1;SDS_P2;PMS_P1;PMS_P2;Temp;Humidity;BMP_temperature;BMP_pressure;BME280_temperature;BME280_humidity;BME280_pressure;Samples;Min_cycle;Max_cycle;Signal;HPM_P1;HPM_P2
2021/12/27 00:00:11;;;;;;;17.60;14.03;;;7.20;99.90;;;;;;4979146;28;20840;-55
2021/12/27 00:02:37;;;;;;;21.10;14.57;;;6.90;99.90;;;;;;4977855;28;20452;-55
2021/12/27 00:05:05;;;;;;;21.10;13.70;;;6.80;99.90;;;;;;4979130;28;20851;-53
2021/12/27 00:07:32;;;;;;;16.00;13.20;;;6.60;99.90;;;;;;4981282;28;20436;-57
2021/12/27 00:09:57;;;;;;;17.67;13.60;;;6.90;99.90;;;;;;4982120;28;20436;-56
2021/12/27 00:12:23;;;;;;;17.60;12.63;;;6.90;99.90;;;;;;4979619;28;20440;-54
2021/12/27 00:14:48;;;;;;;22.23;14.83;;;6.90;99.90;;;;;;4983156;28;20262;-57
2021/12/27 00:17:14;;;;;;;23.27;15.77;;;6.80;99.90;;;;;;4985292;28;20707;-57
2021/12/27 00:19:39;;;;;;;21.90;14.60;;;6.70;99.90;;;;;;4981379;28;20363;-52
2021/12/27 00:22:05;;;;;;;24.80;15.70;;;7.00;99.90;;;;;;4981703;28;20628;-57
2021/12/27 00:24:31;;;;;;;24.80;14.97;;;7.00;99.90;;;;;;4986033;28;20208;-54
2021/12/27 00:26:56;;;;;;;23.43;15.40;;;7.00;99.90;;;;;;4986230;28;20589;-57
2021/12/27 00:29:22;;;;;;;23.00;14.63;;;7.00;99.90;;;;;;4977930;28;20231;-56
2021/12/27 00:31:48;;;;;;;23.80;14.90;;;6.90;99.90;;;;;;4984877;28;20198;-57
2021/12/27 00:34:13;;;;;;;31.27;17.40;;;7.00;99.90;;;;;;4983661;28;20691;-54
2021/12/27 00:36:39;;;;;;;27.10;16.23;;;6.90;99.90;;;;;;4968754;28;20175;-56
2021/12/27 00:39:05;;;;;;;24.37;14.83;;;6.90;99.90;;;;;;4986039;28;20295;-52
2021/12/27 00:41:31;;;;;;;23.30;15.47;;;6.80;99.90;;;;;;4986919;28;20829;-55
2021/12/27 00:43:57;;;;;;;24.00;15.20;;;6.80;99.90;;;;;;4985511;28;20488;-57
2021/12/27 00:46:23;;;;;;;24.73;16.57;;;7.00;99.90;;;;;;4982730;28;20209;-56
2021/12/27 00:48:48;;;;;;;27.10;16.47;;;7.00;99.90;;;;;;4985199;28;20678;-56
2021/12/27 00:51:14;;;;;;;24.70;16.80;;;7.10;99.90;;;;;;4985522;28;20437;-55
2021/12/27 00:53:40;;;;;;;29.10;15.90;;;7.20;99.90;;;;;;4985236;28;20179;-53
2021/12/27 00:56:05;;;;;;;25.17;18.40;;;7.20;99.90;;;;;;4983226;28;20198;-55
2021/12/27 00:58:31;;;;;;;25.90;17.87;;;7.20;99.90;;;;;;4984293;28;20185;-57
2021/12/27 01:00:57;;;;;;;20.63;14.90;;;7.20;99.90;;;;;;4984137;28;20190;-57
2021/12/27 01:03:23;;;;;;;27.90;18.57;;;7.10;99.90;;;;;;4967607;28;20182;-53
2021/12/27 01:05:49;;;;;;;27.43;17.07;;;6.90;99.90;;;;;;4983658;28;20453;-55
2021/12/27 01:08:14;;;;;;;30.20;16.97;;;7.00;99.90;;;;;;4985886;28;20186;-57
2021/12/27 01:13:26;;;;;;;23.47;14.03;;;7.20;99.90;;;;;;4985534;28;20537;-56
2021/12/27 01:16:10;;;;;;;25.17;15.60;;;7.20;99.90;;;;;;4982555;28;20763;-56
2021/12/27 01:18:47;;;;;;;24.47;16.63;;;7.10;99.90;;;;;;4986299;28;20867;-56
2021/12/27 01:21:15;;;;;;;27.00;14.77;;;7.20;99.90;;;;;;4983927;28;22026;-56
2021/12/27 01:23:41;;;;;;;26.30;15.03;;;7.10;99.90;;;;;;4983679;28;20433;-58
2021/12/27 01:26:07;;;;;;;26.57;16.30;;;6.90;99.90;;;;;;4985448;28;20476;-58
2021/12/27 01:28:33;;;;;;;28.03;15.80;;;7.00;99.90;;;;;;4984234;28;20228;-56
2021/12/27 01:30:59;;;;;;;28.73;15.70;;;7.20;99.90;;;;;;4987873;28;20186;-56
2021/12/27 01:33:25;;;;;;;34.07;17.87;;;7.10;99.90;;;;;;4986803;28;20178;-56
2021/12/27 01:35:52;;;;;;;32.33;18.57;;;7.10;99.90;;;;;;4986124;28;20568;-57
2021/12/27 01:38:18;;;;;;;29.67;16.67;;;6.80;99.90;;;;;;4985669;28;20532;-57
2021/12/27 01:40:46;;;;;;;33.23;17.10;;;6.90;99.90;;;;;;4985916;28;20588;-56
2021/12/27 01:43:14;;;;;;;34.90;17.50;;;6.80;99.90;;;;;;4983228;28;20739;-57
2021/12/27 01:45:46;;;;;;;31.23;16.80;;;6.80;99.90;;;;;;4986323;28;20460;-57
2021/12/27 01:48:14;;;;;;;28.60;16.53;;;6.80;99.90;;;;;;4982277;28;20433;-56
2021/12/27 01:50:43;;;;;;;35.07;21.20;;;7.00;99.90;;;;;;4982426;28;20887;-56
2021/12/27 01:53:11;;;;;;;30.37;17.03;;;7.00;99.90;;;;;;4983795;28;20475;-57
2021/12/27 01:55:37;;;;;;;28.27;17.20;;;7.00;99.90;;;;;;4982701;28;20477;-58
2021/12/27 01:58:04;;;;;;;30.63;18.80;;;7.10;99.90;;;;;;4983514;28;20434;-58
2021/12/27 02:00:31;;;;;;;29.13;17.47;;;7.20;99.90;;;;;;4982439;28;20444;-57
2021/12/27 02:02:57;;;;;;;37.17;17.03;;;7.10;99.90;;;;;;4985094;28;20440;-57
2021/12/27 02:05:23;;;;;;;33.23;18.20;;;6.90;99.90;;;;;;4979900;28;20460;-56
2021/12/27 02:07:48;;;;;;;38.50;19.00;;;6.60;99.90;;;;;;4983894;28;20591;-57
2021/12/27 02:10:14;;;;;;;32.97;16.80;;;6.60;99.90;;;;;;4986077;28;20189;-56
2021/12/27 02:12:40;;;;;;;28.23;16.63;;;6.70;99.90;;;;;;4981903;28;20190;-58
2021/12/27 02:15:09;;;;;;;31.73;18.20;;;6.90;99.90;;;;;;4982866;28;20217;-57
2021/12/27 02:17:37;;;;;;;33.57;18.20;;;6.80;99.90;;;;;;4986071;28;20425;-57
2021/12/27 02:20:05;;;;;;;36.47;18.67;;;6.90;99.90;;;;;;4982938;28;21021;-58
2021/12/27 02:22:35;;;;;;;37.40;18.03;;;6.80;99.90;;;;;;4966575;28;21000;-57
2021/12/27 02:25:04;;;;;;;36.93;19.00;;;6.80;99.90;;;;;;4982686;28;20461;-57
2021/12/27 02:27:30;;;;;;;35.47;18.67;;;6.90;99.90;;;;;;4983625;28;20433;-57
2021/12/27 02:29:56;;;;;;;37.23;19.10;;;6.90;99.90;;;;;;4982802;28;20447;-57
2021/12/27 02:32:21;;;;;;;37.63;18.07;;;6.90;99.90;;;;;;4985353;28;20934;-57
2021/12/27 02:34:47;;;;;;;30.80;18.53;;;6.90;99.90;;;;;;4981227;28;20241;-56
2021/12/27 02:37:13;;;;;;;36.33;18.10;;;7.20;99.90;;;;;;4982390;28;20715;-57
2021/12/27 02:39:38;;;;;;;39.73;17.13;;;7.30;99.90;;;;;;4979433;28;20283;-57
2021/12/27 02:42:04;;;;;;;37.90;16.93;;;7.30;99.90;;;;;;4984678;28;20638;-56
2021/12/27 02:44:30;;;;;;;42.33;19.23;;;7.40;99.90;;;;;;4982491;28;20255;-57
2021/12/27 02:46:56;;;;;;;28.20;16.23;;;7.30;99.90;;;;;;4983433;28;20477;-56
2021/12/27 02:49:21;;;;;;;31.20;17.53;;;7.20;99.90;;;;;;4984309;28;20508;-56
2021/12/27 02:51:47;;;;;;;31.80;17.30;;;7.40;99.90;;;;;;4983129;28;20602;-56
2021/12/27 02:54:13;;;;;;;27.40;16.10;;;7.40;99.90;;;;;;4982104;28;20492;-56
2021/12/27 02:56:38;;;;;;;28.20;17.80;;;7.40;99.90;;;;;;4984698;28;20292;-57
2021/12/27 02:59:04;;;;;;;29.70;15.47;;;7.30;99.90;;;;;;4984309;28;20192;-58
2021/12/27 03:01:30;;;;;;;32.57;18.27;;;7.10;99.90;;;;;;4985287;28;20174;-56
2021/12/27 03:03:56;;;;;;;29.10;17.97;;;7.10;99.90;;;;;;4982793;28;20183;-57
2021/12/27 03:06:21;;;;;;;24.53;15.30;;;7.10;99.90;;;;;;4985651;28;20475;-58
2021/12/27 03:08:48;;;;;;;25.60;16.40;;;7.20;99.90;;;;;;4983024;28;20656;-56
2021/12/27 03:11:14;;;;;;;28.97;16.87;;;7.20;99.90;;;;;;4982237;28;20253;-56
2021/12/27 03:13:45;;;;;;;28.83;16.87;;;7.00;99.90;;;;;;4985994;28;21043;-57
2021/12/27 03:16:15;;;;;;;24.20;15.80;;;7.00;99.90;;;;;;4986430;28;20460;-58
2021/12/27 03:18:43;;;;;;;25.53;16.53;;;7.20;99.90;;;;;;4985256;28;20428;-57
2021/12/27 03:21:09;;;;;;;30.50;16.27;;;7.50;99.90;;;;;;4983613;28;20837;-59
2021/12/27 03:23:37;;;;;;;25.33;15.17;;;7.60;99.90;;;;;;4986907;28;21162;-58
2021/12/27 03:26:04;;;;;;;22.53;15.50;;;7.60;99.90;;;;;;4982246;28;20456;-58
2021/12/27 03:28:30;;;;;;;22.47;15.90;;;7.70;99.90;;;;;;4977591;28;20982;-59
2021/12/27 03:30:57;;;;;;;20.50;15.17;;;7.70;99.90;;;;;;4980283;28;20445;-58
2021/12/27 03:33:23;;;;;;;22.70;15.27;;;7.50;99.90;;;;;;4981905;28;20229;-57
2021/12/27 03:36:02;;;;;;;26.30;15.43;;;7.70;99.90;;;;;;4975560;28;20825;-59
2021/12/27 03:38:38;;;;;;;24.70;16.43;;;7.60;99.90;;;;;;4982243;28;20483;-58
2021/12/27 03:41:07;;;;;;;22.83;15.60;;;7.50;99.90;;;;;;4979762;28;20445;-58
2021/12/27 03:43:33;;;;;;;25.80;16.97;;;7.60;99.90;;;;;;4983224;28;20532;-58
2021/12/27 03:45:59;;;;;;;23.93;15.83;;;7.70;99.90;;;;;;4983593;28;21073;-56
2021/12/27 03:48:25;;;;;;;24.80;16.10;;;7.60;99.90;;;;;;4983397;28;20444;-58
2021/12/27 03:50:51;;;;;;;20.80;15.30;;;7.80;99.90;;;;;;4983928;28;20217;-58
2021/12/27 03:53:16;;;;;;;23.77;16.10;;;7.90;99.90;;;;;;4982711;28;20472;-58
2021/12/27 03:55:42;;;;;;;19.90;14.50;;;8.00;99.90;;;;;;4984181;28;20664;-57
2021/12/27 03:58:23;;;;;;;18.53;13.57;;;8.00;99.90;;;;;;4983833;28;20174;-57
2021/12/27 04:03:21;;;;;;;25.60;15.53;;;7.90;99.90;;;;;;4985621;28;20829;-57
2021/12/27 04:05:47;;;;;;;20.47;14.97;;;8.00;99.90;;;;;;4982631;28;20546;-57
2021/12/27 04:08:13;;;;;;;23.77;15.20;;;7.80;99.90;;;;;;4983127;28;20910;-58
2021/12/27 04:10:42;;;;;;;20.80;14.43;;;7.80;99.90;;;;;;4985231;28;20230;-57
2021/12/27 04:13:09;;;;;;;18.37;14.10;;;7.70;99.90;;;;;;4981591;28;20460;-58
2021/12/27 04:15:35;;;;;;;19.60;13.60;;;7.90;99.90;;;;;;4982120;28;20473;-57
2021/12/27 04:18:02;;;;;;;20.90;14.13;;;7.70;99.90;;;;;;4983018;28;20467;-57
2021/12/27 04:20:27;;;;;;;20.60;14.63;;;7.70;99.90;;;;;;4982525;28;20425;-57
2021/12/27 04:22:53;;;;;;;16.77;12.73;;;7.70;99.90;;;;;;4981368;28;20440;-55
2021/12/27 04:25:20;;;;;;;20.77;14.60;;;7.80;99.90;;;;;;4978982;28;20479;-58
2021/12/27 04:27:47;;;;;;;19.60;12.93;;;7.90;99.90;;;;;;4983820;28;20572;-57
2021/12/27 04:30:13;;;;;;;21.60;13.77;;;8.00;99.90;;;;;;4965774;28;20432;-56
2021/12/27 04:32:40;;;;;;;19.60;13.63;;;7.80;99.90;;;;;;4982195;28;20788;-57
2021/12/27 04:35:06;;;;;;;20.77;13.83;;;7.80;99.90;;;;;;4980946;28;20461;-58
2021/12/27 04:37:31;;;;;;;19.70;13.50;;;7.80;99.90;;;;;;4979689;28;20449;-58
2021/12/27 04:39:58;;;;;;;17.53;13.57;;;7.80;99.90;;;;;;4982380;28;20791;-57
2021/12/27 04:42:25;;;;;;;19.13;14.20;;;7.90;99.90;;;;;;4983226;28;20698;-57
2021/12/27 04:44:51;;;;;;;17.90;12.97;;;7.90;99.90;;;;;;4980571;28;20469;-57
2021/12/27 04:47:18;;;;;;;18.90;13.27;;;7.90;99.90;;;;;;4980616;28;20440;-57
2021/12/27 04:49:44;;;;;;;17.30;13.80;;;8.00;99.90;;;;;;4981637;28;20201;-56
2021/12/27 04:52:10;;;;;;;18.30;14.10;;;8.00;99.90;;;;;;4982861;28;20433;-57
2021/12/27 04:54:36;;;;;;;17.23;12.47;;;7.90;99.90;;;;;;4981137;28;20313;-57
2021/12/27 04:57:02;;;;;;;18.77;12.83;;;8.10;99.90;;;;;;4980478;28;20444;-58
2021/12/27 04:59:28;;;;;;;18.13;12.93;;;8.20;99.90;;;;;;4987291;28;21023;-58
2021/12/27 05:01:54;;;;;;;18.77;13.03;;;8.20;99.90;;;;;;4984211;28;20621;-57
2021/12/27 05:04:19;;;;;;;18.67;14.70;;;8.30;99.90;;;;;;4984817;28;20373;-58
2021/12/27 05:06:45;;;;;;;20.50;13.93;;;8.40;99.90;;;;;;4985997;28;20189;-56
2021/12/27 05:09:11;;;;;;;16.90;12.83;;;8.50;99.90;;;;;;4985882;28;20376;-57
2021/12/27 05:11:37;;;;;;;16.60;12.43;;;8.40;99.90;;;;;;4990267;28;20188;-57
2021/12/27 05:14:03;;;;;;;17.67;12.77;;;8.30;99.90;;;;;;4983956;28;20467;-57
2021/12/27 05:16:29;;;;;;;15.33;12.30;;;8.30;99.90;;;;;;4981845;28;20448;-55
2021/12/27 05:18:54;;;;;;;17.20;13.10;;;8.40;99.90;;;;;;4986448;28;20443;-57
2021/12/27 05:21:20;;;;;;;15.27;12.40;;;8.30;99.90;;;;;;4984471;28;20552;-56
2021/12/27 05:23:46;;;;;;;17.73;13.30;;;8.20;99.90;;;;;;4985055;28;20186;-59
2021/12/27 05:26:11;;;;;;;16.23;13.07;;;8.30;99.90;;;;;;4987883;28;20961;-55
2021/12/27 05:28:37;;;;;;;17.10;12.90;;;8.40;99.90;;;;;;4983238;28;20192;-59
2021/12/27 05:31:03;;;;;;;18.23;13.03;;;8.50;99.90;;;;;;4985677;28;20182;-57
2021/12/27 05:33:28;;;;;;;15.43;11.60;;;8.60;99.90;;;;;;4981660;28;20228;-57
2021/12/27 05:35:54;;;;;;;17.30;12.40;;;8.60;99.90;;;;;;4984512;28;20356;-58
2021/12/27 05:38:20;;;;;;;15.07;12.77;;;8.60;99.90;;;;;;4983851;28;20186;-58
2021/12/27 05:40:46;;;;;;;14.20;11.43;;;8.60;99.90;;;;;;4983240;28;21052;-56
2021/12/27 05:43:11;;;;;;;16.27;12.73;;;8.70;99.90;;;;;;4982735;28;20273;-57
2021/12/27 05:45:37;;;;;;;15.30;12.17;;;8.60;99.90;;;;;;4982737;28;20211;-58
2021/12/27 05:48:04;;;;;;;19.93;13.57;;;8.70;99.90;;;;;;4983525;28;20190;-56
2021/12/27 05:50:30;;;;;;;15.07;11.97;;;8.60;99.90;;;;;;4983622;28;20796;-58
2021/12/27 05:52:56;;;;;;;16.30;13.13;;;8.60;99.90;;;;;;4985056;28;20456;-57
2021/12/27 05:55:22;;;;;;;16.80;12.73;;;8.70;99.90;;;;;;4985772;28;20682;-57
2021/12/27 05:57:48;;;;;;;16.43;11.60;;;8.70;99.90;;;;;;4982685;28;20821;-57
2021/12/27 06:00:14;;;;;;;16.23;12.40;;;8.60;99.90;;;;;;4983531;28;20428;-57
2021/12/27 06:02:41;;;;;;;16.03;12.20;;;8.60;99.90;;;;;;4984927;28;20643;-57
2021/12/27 06:05:08;;;;;;;14.03;11.80;;;8.70;99.90;;;;;;4984239;28;20820;-57
2021/12/27 06:07:34;;;;;;;15.43;12.27;;;8.70;99.90;;;;;;4983639;28;20426;-58
2021/12/27 06:09:59;;;;;;;16.27;11.33;;;8.70;99.90;;;;;;4983294;28;20469;-57
2021/12/27 06:12:25;;;;;;;16.27;12.10;;;8.80;99.90;;;;;;4983849;28;20468;-58
2021/12/27 06:14:51;;;;;;;16.93;12.13;;;8.80;99.90;;;;;;4984841;28;20613;-57
2021/12/27 06:17:16;;;;;;;15.07;11.90;;;8.80;99.90;;;;;;4983801;28;20664;-57
2021/12/27 06:19:42;;;;;;;16.77;11.47;;;8.80;99.90;;;;;;4986037;28;20267;-58
2021/12/27 06:22:08;;;;;;;20.37;12.57;;;8.80;99.90;;;;;;4984359;28;20220;-56
2021/12/27 06:24:33;;;;;;;17.20;12.37;;;8.90;99.90;;;;;;4983931;28;20205;-56
2021/12/27 06:26:59;;;;;;;15.40;12.27;;;8.90;99.90;;;;;;4983274;28;20599;-57
2021/12/27 06:29:24;;;;;;;14.80;11.70;;;8.90;99.90;;;;;;4982128;28;20544;-58
2021/12/27 06:31:50;;;;;;;18.10;12.80;;;8.90;99.90;;;;;;4982777;28;20547;-57
2021/12/27 06:34:16;;;;;;;14.63;11.90;;;9.00;99.90;;;;;;4967720;28;20699;-57
2021/12/27 06:36:42;;;;;;;15.27;12.03;;;8.80;99.90;;;;;;4981630;28;20241;-57
2021/12/27 06:39:08;;;;;;;15.07;12.17;;;8.80;99.90;;;;;;4965572;28;20426;-57
2021/12/27 06:41:34;;;;;;;15.53;12.03;;;8.80;99.90;;;;;;4984186;28;20435;-57
2021/12/27 06:44:00;;;;;;;14.93;11.47;;;8.80;99.90;;;;;;4985654;28;20437;-58
2021/12/27 06:46:26;;;;;;;15.17;12.00;;;8.70;99.90;;;;;;4979712;28;20430;-58
2021/12/27 06:48:52;;;;;;;13.60;11.63;;;8.70;99.90;;;;;;4982065;28;20440;-57
2021/12/27 06:51:18;;;;;;;13.87;11.33;;;8.70;99.90;;;;;;4978706;28;20277;-58
2021/12/27 06:53:43;;;;;;;17.07;12.10;;;8.60;99.90;;;;;;4983533;28;20216;-57
2021/12/27 06:56:09;;;;;;;14.30;11.37;;;8.70;99.90;;;;;;4982104;28;20209;-58
2021/12/27 06:58:35;;;;;;;13.37;11.17;;;8.70;99.90;;;;;;4985962;28;20181;-57
2021/12/27 07:01:01;;;;;;;13.73;11.43;;;8.70;99.90;;;;;;4982897;28;20455;-58
2021/12/27 07:03:27;;;;;;;14.67;11.17;;;8.70;99.90;;;;;;4982852;28;20174;-56
2021/12/27 07:05:52;;;;;;;14.43;11.50;;;8.70;99.90;;;;;;4982280;28;20275;-55
2021/12/27 07:08:19;;;;;;;15.40;11.20;;;8.70;99.90;;;;;;4982451;28;20265;-57
2021/12/27 07:10:44;;;;;;;12.73;10.17;;;8.70;99.90;;;;;;4983332;28;20182;-56
2021/12/27 07:13:10;;;;;;;16.53;12.30;;;8.60;99.90;;;;;;4984748;28;20930;-57
2021/12/27 07:15:41;;;;;;;14.60;11.90;;;8.70;99.90;;;;;;4983706;28;20929;-57
2021/12/27 07:18:12;;;;;;;13.20;11.23;;;8.60;99.90;;;;;;4980706;28;20190;-58
2021/12/27 07:20:38;;;;;;;14.90;10.80;;;8.50;99.90;;;;;;4981594;28;20446;-57
2021/12/27 07:23:05;;;;;;;15.53;12.30;;;8.50;99.90;;;;;;4983673;28;20437;-56
2021/12/27 07:25:31;;;;;;;14.70;12.03;;;8.60;99.90;;;;;;4982436;28;20471;-58
2021/12/27 07:27:57;;;;;;;11.60;10.10;;;8.60;99.90;;;;;;4982677;28;20505;-56
2021/12/27 07:30:23;;;;;;;15.87;11.30;;;8.70;99.90;;;;;;4982059;28;20445;-57
2021/12/27 07:32:48;;;;;;;14.93;12.17;;;8.70;99.90;;;;;;4982298;28;20273;-57
2021/12/27 07:35:14;;;;;;;11.67;9.93;;;8.70;99.90;;;;;;4981222;28;20584;-58
2021/12/27 07:37:40;;;;;;;11.93;9.90;;;8.70;99.90;;;;;;4982656;28;20748;-58
2021/12/27 07:40:06;;;;;;;12.63;10.50;;;8.80;99.90;;;;;;4982494;28;20953;-54
2021/12/27 07:42:32;;;;;;;12.73;10.10;;;8.80;99.90;;;;;;4983032;28;20437;-56
2021/12/27 07:44:58;;;;;;;15.37;10.60;;;8.80;99.90;;;;;;4980241;28;20478;-57
2021/12/27 07:47:24;;;;;;;15.30;10.60;;;8.70;99.90;;;;;;4984139;28;20200;-57
2021/12/27 07:49:49;;;;;;;12.77;10.70;;;8.70;99.90;;;;;;4980754;28;20206;-58
2021/12/27 07:52:15;;;;;;;13.97;10.67;;;8.70;99.90;;;;;;4982132;28;20181;-56
2021/12/27 07:54:41;;;;;;;12.40;9.83;;;8.70;99.90;;;;;;4984218;28;20212;-56
2021/12/27 07:57:07;;;;;;;12.93;10.00;;;8.80;99.90;;;;;;4982403;28;20272;-56
2021/12/27 07:59:33;;;;;;;12.80;9.80;;;8.80;99.90;;;;;;4964749;28;20184;-58
2021/12/27 08:01:58;;;;;;;12.43;9.93;;;8.90;99.90;;;;;;4981920;28;20802;-57
2021/12/27 08:04:25;;;;;;;11.43;9.30;;;8.80;99.90;;;;;;4966354;28;20341;-57
2021/12/27 08:06:51;;;;;;;9.90;8.77;;;8.90;99.90;;;;;;4980230;28;20526;-56
2021/12/27 08:09:17;;;;;;;13.00;9.20;;;8.90;99.90;;;;;;4983181;28;20785;-55
2021/12/27 08:11:42;;;;;;;13.57;9.90;;;8.90;99.90;;;;;;4983061;28;20445;-57
2021/12/27 08:14:08;;;;;;;15.37;11.60;;;9.00;99.90;;;;;;4982215;28;20437;-57
2021/12/27 08:16:34;;;;;;;13.67;10.00;;;9.00;99.90;;;;;;4982080;28;20911;-57
2021/12/27 08:18:59;;;;;;;16.73;11.90;;;8.90;99.90;;;;;;4984514;28;20655;-55
2021/12/27 08:21:26;;;;;;;20.57;13.57;;;9.10;99.90;;;;;;4981951;28;20209;-57
2021/12/27 08:23:53;;;;;;;11.67;9.13;;;9.20;99.90;;;;;;4984163;28;20189;-57
2021/12/27 08:26:19;;;;;;;12.00;8.80;;;9.30;99.90;;;;;;4978933;28;20461;-55
2021/12/27 08:28:48;;;;;;;14.27;10.57;;;9.40;99.90;;;;;;4982017;28;20553;-56
2021/12/27 08:31:14;;;;;;;11.10;9.80;;;9.50;99.90;;;;;;4980389;28;20979;-55
2021/12/27 08:33:39;;;;;;;12.53;9.63;;;9.50;99.90;;;;;;4980677;28;20557;-57
2021/12/27 08:36:05;;;;;;;9.53;8.53;;;9.50;99.90;;;;;;4990395;28;20592;-57
2021/12/27 08:38:31;;;;;;;13.97;9.70;;;9.50;99.90;;;;;;4984370;28;20190;-55
2021/12/27 08:40:57;;;;;;;12.87;8.90;;;9.50;99.90;;;;;;4987928;28;20190;-56
2021/12/27 08:43:24;;;;;;;11.13;9.03;;;9.50;99.90;;;;;;4987767;28;20430;-56
2021/12/27 08:45:50;;;;;;;11.73;9.17;;;9.50;99.90;;;;;;4986617;28;20862;-57
2021/12/27 08:48:16;;;;;;;12.03;9.07;;;9.50;99.90;;;;;;4986892;28;20439;-56
2021/12/27 08:50:42;;;;;;;10.40;8.53;;;9.50;99.90;;;;;;4984955;28;20299;-56
2021/12/27 08:53:08;;;;;;;11.80;10.30;;;9.50;99.90;;;;;;4984658;28;20449;-57
2021/12/27 08:55:35;;;;;;;9.93;8.80;;;9.50;99.90;;;;;;4985584;28;21008;-56
2021/12/27 08:58:02;;;;;;;15.73;8.10;;;9.60;99.90;;;;;;4985038;28;20444;-57
2021/12/27 09:00:28;;;;;;;11.33;8.27;;;9.60;99.90;;;;;;4987451;28;21222;-56
2021/12/27 09:02:53;;;;;;;11.27;7.90;;;9.60;99.90;;;;;;4986572;28;20547;-58
2021/12/27 09:05:19;;;;;;;10.57;8.83;;;9.60;99.90;;;;;;4984280;28;20690;-58
2021/12/27 09:07:45;;;;;;;10.50;8.57;;;9.60;99.90;;;;;;4985256;28;20213;-58
2021/12/27 09:10:11;;;;;;;8.87;7.03;;;9.60;99.90;;;;;;4984796;28;20197;-58
2021/12/27 09:12:38;;;;;;;9.60;8.53;;;9.70;99.90;;;;;;4985114;28;20194;-58
2021/12/27 09:15:05;;;;;;;11.27;7.27;;;9.90;99.90;;;;;;4984658;28;20527;-59
2021/12/27 09:17:30;;;;;;;12.80;9.10;;;9.90;99.90;;;;;;4985515;28;20437;-56
2021/12/27 09:19:56;;;;;;;14.10;7.37;;;9.90;99.90;;;;;;4987008;28;20439;-57
2021/12/27 09:22:21;;;;;;;8.97;6.93;;;9.90;99.90;;;;;;4983929;28;20719;-57
2021/12/27 09:24:48;;;;;;;7.60;6.50;;;10.00;99.90;;;;;;4985722;28;20283;-57
2021/12/27 09:27:13;;;;;;;17.33;7.67;;;9.90;99.90;;;;;;4984488;28;20200;-58
2021/12/27 09:29:41;;;;;;;9.20;6.77;;;10.00;99.90;;;;;;4984128;28;20809;-55
2021/12/27 09:32:07;;;;;;;6.80;5.50;;;10.00;99.90;;;;;;4985043;28;20193;-58
2021/12/27 09:34:32;;;;;;;6.93;6.23;;;9.70;99.90;;;;;;4984001;28;20837;-58
2021/12/27 09:36:58;;;;;;;7.87;6.40;;;9.60;99.90;;;;;;4986583;28;20440;-57
2021/12/27 09:39:23;;;;;;;7.50;6.70;;;9.70;99.90;;;;;;4983421;28;20300;-55
2021/12/27 09:41:49;;;;;;;10.70;7.13;;;9.70;99.90;;;;;;4983923;28;20718;-58
2021/12/27 09:44:15;;;;;;;8.57;7.67;;;9.80;99.90;;;;;;4985688;28;20186;-59
2021/12/27 09:46:40;;;;;;;8.03;7.20;;;9.70;99.90;;;;;;4976110;28;20545;-58
2021/12/27 09:49:11;;;;;;;7.43;6.50;;;9.80;99.90;;;;;;4982116;28;20252;-57
2021/12/27 09:51:40;;;;;;;12.60;8.50;;;9.90;99.90;;;;;;4981377;28;20550;-58
2021/12/27 09:54:06;;;;;;;11.27;8.57;;;9.90;99.90;;;;;;4983572;28;20443;-58
2021/12/27 09:56:32;;;;;;;8.80;7.90;;;10.00;99.90;;;;;;4985509;28;20440;-57
2021/12/27 09:58:58;;;;;;;9.50;7.87;;;9.90;99.90;;;;;;4982058;28;20209;-56
2021/12/27 10:01:23;;;;;;;9.37;7.70;;;10.00;99.90;;;;;;4982478;28;20935;-57
2021/12/27 10:03:55;;;;;;;8.70;7.60;;;10.00;99.90;;;;;;4981726;28;20276;-57
2021/12/27 10:06:22;;;;;;;10.23;7.97;;;10.20;99.90;;;;;;4983480;28;20581;-58
2021/12/27 10:08:51;;;;;;;8.80;7.90;;;10.20;99.90;;;;;;4982480;28;20511;-59
2021/12/27 10:11:21;;;;;;;9.10;8.03;;;10.20;99.90;;;;;;4981504;28;20440;-56
2021/12/27 10:14:11;;;;;;;9.70;7.67;;;10.20;99.90;;;;;;4982664;28;20429;-58
2021/12/27 10:16:42;;;;;;;8.10;6.40;;;10.30;99.90;;;;;;4959268;28;20450;-57
2021/12/27 10:19:15;;;;;;;7.97;5.93;;;10.20;99.90;;;;;;4976262;28;20437;-57
2021/12/27 10:21:42;;;;;;;9.63;7.70;;;10.20;99.90;;;;;;4978880;28;20841;-58
2021/12/27 10:24:17;;;;;;;10.07;6.43;;;10.30;99.90;;;;;;4975419;28;20882;-54
2021/12/27 10:26:46;;;;;;;8.87;6.83;;;10.50;99.90;;;;;;4976378;28;20444;-57
2021/12/27 10:29:13;;;;;;;6.83;6.13;;;10.40;99.90;;;;;;4983704;28;20429;-57
2021/12/27 10:31:50;;;;;;;8.17;6.03;;;10.40;99.90;;;;;;4973902;28;20445;-57
2021/12/27 10:34:16;;;;;;;6.57;5.73;;;10.50;99.90;;;;;;4983051;28;20478;-56
2021/12/27 10:36:58;;;;;;;6.27;5.67;;;10.60;99.90;;;;;;4981215;28;20445;-53
2021/12/27 10:39:46;;;;;;;7.80;6.90;;;10.60;99.90;;;;;;4982450;28;20973;-58
2021/12/27 10:42:17;;;;;;;7.10;5.37;;;10.70;99.90;;;;;;4982326;28;20437;-57
2021/12/27 10:44:44;;;;;;;9.00;7.37;;;10.80;99.90;;;;;;4979949;28;20515;-55
2021/12/27 10:47:34;;;;;;;5.10;4.60;;;11.00;99.90;;;;;;4982239;28;20564;-56
2021/12/27 10:50:07;;;;;;;5.87;4.73;;;11.10;99.90;;;;;;4985089;28;20801;-57
2021/12/27 10:52:49;;;;;;;4.47;4.07;;;11.10;99.90;;;;;;4983522;28;20456;-53
2021/12/27 10:55:21;;;;;;;5.73;5.13;;;11.30;99.90;;;;;;4981164;28;20502;-57
2021/12/27 10:57:47;;;;;;;6.07;4.60;;;11.40;99.90;;;;;;4978791;28;20479;-58
2021/12/27 11:00:24;;;;;;;8.20;4.10;;;11.60;99.90;;;;;;4980082;28;20544;-56
2021/12/27 11:02:51;;;;;;;3.90;3.60;;;11.70;99.90;;;;;;4981605;28;20825;-56
2021/12/27 11:05:25;;;;;;;4.20;3.67;;;11.80;99.90;;;;;;4981829;28;20531;-57
2021/12/27 11:07:52;;;;;;;3.93;3.53;;;11.90;99.90;;;;;;4979974;28;20435;-58
2021/12/27 11:10:20;;;;;;;4.80;3.50;;;12.10;99.90;;;;;;4982814;28;20789;-58
2021/12/27 11:12:47;;;;;;;4.73;3.70;;;12.00;99.90;;;;;;4982128;28;20440;-57
2021/12/27 11:15:12;;;;;;;3.73;2.77;;;12.10;99.90;;;;;;4981633;28;20483;-55
2021/12/27 11:17:39;;;;;;;4.00;2.70;;;12.30;99.90;;;;;;4982347;28;20441;-58
2021/12/27 11:20:08;;;;;;;5.30;3.97;;;12.30;99.90;;;;;;4981861;28;20182;-58
2021/12/27 11:22:36;;;;;;;8.13;5.90;;;12.20;99.90;;;;;;4982940;28;20445;-55
2021/12/27 11:25:20;;;;;;;7.53;6.00;;;12.10;99.90;;;;;;4980303;28;20465;-56
2021/12/27 11:27:46;;;;;;;5.10;3.23;;;12.20;99.90;;;;;;4981234;28;20643;-57
2021/12/27 11:30:15;;;;;;;4.33;3.67;;;12.20;99.90;;;;;;4974630;28;20441;-56
2021/12/27 11:33:09;;;;;;;2.93;2.63;;;12.30;99.90;;;;;;4974540;28;20436;-56
2021/12/27 11:35:38;;;;;;;3.60;2.70;;;12.30;99.90;;;;;;4976646;28;20903;-58
2021/12/27 11:38:05;;;;;;;5.40;2.87;;;12.50;99.90;;;;;;4975643;28;20441;-57
2021/12/27 11:40:40;;;;;;;3.83;3.07;;;12.50;99.90;;;;;;4976388;28;20549;-55
2021/12/27 11:43:06;;;;;;;3.60;2.83;;;12.40;99.90;;;;;;4967755;28;20475;-57
2021/12/27 11:45:39;;;;;;;4.40;4.00;;;12.50;99.90;;;;;;4978755;28;20484;-58
2021/12/27 11:48:25;;;;;;;4.30;3.80;;;12.30;99.90;;;;;;4975548;28;20198;-59
2021/12/27 11:51:00;;;;;;;4.27;3.40;;;12.30;99.90;;;;;;4969478;28;21010;-57
2021/12/27 11:53:29;;;;;;;5.27;3.90;;;12.30;99.90;;;;;;4960841;28;20437;-58
2021/12/27 11:55:54;;;;;;;5.20;4.50;;;12.30;99.90;;;;;;4978778;28;20476;-57
2021/12/27 11:58:39;;;;;;;3.97;3.57;;;12.20;99.90;;;;;;4981124;28;20433;-59
2021/12/27 12:01:21;;;;;;;5.27;4.77;;;12.10;99.90;;;;;;4974165;28;20203;-57
2021/12/27 12:03:54;;;;;;;5.10;4.60;;;12.20;99.90;;;;;;4977239;28;20961;-59
2021/12/27 12:06:38;;;;;;;6.63;3.67;;;12.20;99.90;;;;;;4980945;28;20568;-58
2021/12/27 12:09:16;;;;;;;6.80;4.40;;;12.30;99.90;;;;;;4982124;28;20451;-59
2021/12/27 12:11:43;;;;;;;5.53;4.30;;;12.30;99.90;;;;;;4983829;28;20451;-59
2021/12/27 12:14:36;;;;;;;5.00;4.50;;;12.30;99.90;;;;;;4983377;28;20523;-58
2021/12/27 12:17:04;;;;;;;4.30;3.90;;;12.30;99.90;;;;;;4981362;28;20820;-60
2021/12/27 12:19:42;;;;;;;4.40;3.87;;;12.40;99.90;;;;;;4972423;28;20429;-59
2021/12/27 12:22:38;;;;;;;4.20;3.80;;;12.50;99.90;;;;;;4972450;28;20955;-60
2021/12/27 12:25:05;;;;;;;7.33;4.00;;;12.60;99.90;;;;;;4984232;28;20468;-59
2021/12/27 12:27:30;;;;;;;4.83;4.40;;;12.60;99.90;;;;;;4984902;28;20456;-58
2021/12/27 12:29:56;;;;;;;7.20;4.03;;;12.80;99.90;;;;;;4984796;28;20452;-58
2021/12/27 12:32:22;;;;;;;4.33;3.70;;;12.60;99.90;;;;;;4985944;28;20624;-59
2021/12/27 12:34:48;;;;;;;5.07;4.50;;;12.40;99.90;;;;;;4986432;28;20476;-58
2021/12/27 12:37:15;;;;;;;5.00;4.40;;;12.40;99.90;;;;;;4985999;28;20240;-58
2021/12/27 12:39:52;;;;;;;5.00;4.50;;;12.10;99.90;;;;;;4987871;28;20874;-58
2021/12/27 12:42:26;;;;;;;7.17;6.40;;;12.10;99.90;;;;;;4977611;28;20432;-58
2021/12/27 12:44:53;;;;;;;8.47;7.57;;;12.10;99.90;;;;;;4984362;28;20621;-60
2021/12/27 12:47:21;;;;;;;9.30;7.30;;;12.00;99.90;;;;;;4984043;28;20487;-58